Angwin, CA (94508)

12:13 AM PDT on August 25, 2016 (GMT -0700)
Edgewood | | Change Station

Elev 1766 ft 38.57 °N, 122.44 °W | Updated 6 seconds ago

Overcast
Overcast
57.2 °F
Feels Like 57.2 °F
N
0.0
Wind Variable Wind from North
Gusts 0.0 mph

Today
High -- | Low -- °F
--% Chance of Precip.
Yesterday
High -- | Low -- °F
Precip. -- in
Pressure 29.95 in
Visibility 10.0 miles
Clouds Overcast 500 ft
Dew Point 51 °F
Humidity 79%
Rainfall 0.00 in
Snow Depth Not available.
6:33 AM 7:49 PM
Waning Gibbous, 48% visible
METAR KSTS 250653Z AUTO 20003KT 10SM OVC005 13/12 A2997 RMK AO2 SLP142 T01280117
Pressure 29.95 in
Visibility 10.0 miles
Clouds Overcast 500 ft
Dew Point 51 °F
Humidity 79%
Rainfall 0.00 in
Snow Depth Not available.
6:33 AM 7:49 PM
Waning Gibbous, 48% visible
METAR KSTS 250653Z AUTO 20003KT 10SM OVC005 13/12 A2997 RMK AO2 SLP142 T01280117

10-Day Weather Forecast

Almanac

Astronomy

Aug. 25, 2016 Rise Set
Actual Time
Civil Twilight
Nautical Twilight
Astronomical Twilight
Moon
Length of Visible Light
Length of Day
Tomorrow will be .
, % of the Moon is Illuminated

Today's Extremes

State Highs State Lows

Community

WunderPhotos

Upload Photos

1,934,814 photos uploaded!

WunderBlog® & News

Nearby

Air Quality

  Air Quality AQ Index Pollutant
Not available.

Snow Depth

Station Depth Elevation

Earthquake Activity

City Distance Mag. Time & Date
Minimum magnitude displayed is 2.5.

Coastal Water Temperatures

Place Temperature

Stations

Nearby Weather Stations

Station Location Temp. Windchill Dew Point Humidity Wind Precip. Elev Updated Type
                   

Watches & Warnings

There are currently no watches in effect.